createdAt,value
2019-04-24T00:02:49.592Z,14.30
2019-04-24T00:03:40.831Z,13.90
2019-04-24T00:04:47.884Z,14.80
2019-04-24T00:07:47.073Z,15.30
2019-04-24T00:09:49.215Z,14.00
2019-04-24T00:12:45.924Z,16.30
2019-04-24T00:14:38.964Z,14.60
2019-04-24T00:15:49.627Z,13.80
2019-04-24T00:17:04.125Z,15.20
2019-04-24T00:17:30.064Z,14.20
2019-04-24T00:19:09.069Z,17.60
2019-04-24T00:19:32.277Z,17.90
2019-04-24T00:20:37.326Z,17.30
2019-04-24T00:21:36.534Z,15.30
2019-04-24T00:22:36.038Z,13.70
2019-04-24T00:23:55.887Z,14.90
2019-04-24T00:24:36.965Z,16.00
2019-04-24T00:25:40.881Z,15.10
2019-04-24T00:26:39.123Z,14.50
2019-04-24T00:27:42.050Z,14.10
2019-04-24T00:30:44.996Z,16.90
2019-04-24T00:31:39.889Z,16.50
2019-04-24T00:32:41.270Z,14.30
2019-04-24T00:33:47.685Z,13.80
2019-04-24T00:34:32.569Z,14.20
2019-04-24T00:35:40.632Z,17.80
2019-04-24T00:36:41.017Z,13.40
2019-04-24T00:37:37.852Z,13.50
2019-04-24T00:40:46.415Z,15.00
2019-04-24T00:42:35.876Z,14.40
2019-04-24T00:44:40.687Z,16.50
2019-04-24T00:45:37.500Z,14.10
2019-04-24T00:46:50.898Z,17.30
2019-04-24T00:47:43.136Z,14.90
2019-04-24T00:48:48.479Z,16.10
2019-04-24T00:50:43.872Z,17.80
2019-04-24T00:52:46.462Z,15.80
2019-04-24T00:54:35.934Z,17.50
2019-04-24T00:55:46.944Z,15.10
2019-04-24T00:56:39.358Z,17.00
2019-04-24T00:57:39.764Z,17.00
2019-04-24T01:01:59.760Z,16.30
2019-04-24T01:05:07.287Z,15.30
2019-04-24T01:05:53.411Z,16.90
2019-04-24T01:08:54.002Z,15.60
2019-04-24T01:10:06.669Z,16.20
2019-04-24T01:11:29.773Z,15.10
2019-04-24T01:12:58.701Z,15.50
2019-04-24T01:14:36.201Z,14.50
2019-04-24T01:15:33.964Z,15.70
2019-04-24T01:17:03.948Z,15.20
2019-04-24T01:17:39.426Z,15.70
2019-04-24T01:18:56.603Z,16.60
2019-04-24T01:19:49.986Z,15.20
2019-04-24T01:20:42.089Z,15.20
2019-04-24T01:21:44.600Z,16.60
2019-04-24T01:23:34.221Z,14.80
2019-04-24T01:26:40.805Z,17.50
2019-04-24T01:27:51.394Z,16.50
2019-04-24T01:28:44.842Z,16.20
2019-04-24T01:29:50.340Z,15.40
2019-04-24T01:31:00.714Z,16.40
2019-04-24T01:32:45.159Z,16.00
2019-04-24T01:33:41.721Z,15.60
2019-04-24T01:36:38.828Z,15.70
2019-04-24T01:38:40.991Z,15.00
2019-04-24T01:39:43.355Z,15.40
2019-04-24T01:41:33.643Z,15.80
2019-04-24T01:42:32.882Z,16.30
2019-04-24T01:43:41.790Z,16.10
2019-04-24T01:44:48.342Z,15.70
2019-04-24T01:46:41.370Z,16.40
2019-04-24T01:48:44.512Z,16.10
2019-04-24T01:49:53.218Z,16.80
2019-04-24T01:50:38.571Z,15.70
2019-04-24T01:53:35.824Z,18.70
2019-04-24T01:54:43.236Z,16.60
2019-04-24T01:55:25.763Z,16.80
2019-04-24T01:56:39.941Z,16.90
2019-04-24T01:57:41.587Z,16.20
2019-04-24T01:59:42.208Z,15.90
2019-04-24T02:01:35.297Z,16.90
2019-04-24T02:04:44.945Z,17.60
2019-04-24T02:05:34.178Z,17.00
2019-04-24T02:06:28.789Z,17.80
2019-04-24T02:07:40.659Z,17.10
2019-04-24T02:08:34.128Z,15.80
2019-04-24T02:09:52.304Z,16.90
2019-04-24T02:10:48.332Z,16.40
2019-04-24T02:11:40.770Z,18.90
2019-04-24T02:13:46.900Z,16.80
2019-04-24T02:14:59.542Z,16.90
2019-04-24T02:16:58.382Z,17.20
2019-04-24T02:17:47.187Z,17.20
2019-04-24T02:18:39.263Z,17.30
2019-04-24T02:19:37.025Z,16.40
2019-04-24T02:20:49.528Z,17.10
2019-04-24T02:21:42.021Z,16.30
2019-04-24T02:23:05.764Z,16.30
2019-04-24T02:23:39.637Z,17.00
2019-04-24T02:25:43.202Z,17.90
2019-04-24T02:27:43.556Z,16.20
2019-04-24T02:29:38.285Z,15.50
2019-04-24T02:31:48.623Z,16.70
2019-04-24T02:36:45.380Z,17.90
2019-04-24T02:39:05.365Z,16.00
2019-04-24T02:42:49.384Z,14.70
2019-04-24T02:43:52.636Z,16.00
2019-04-24T02:46:03.295Z,18.40
2019-04-24T02:52:07.842Z,15.30
2019-04-24T02:55:37.554Z,15.60
2019-04-24T02:57:06.835Z,16.50
2019-04-24T02:57:44.318Z,15.70
2019-04-24T03:00:47.218Z,15.60
2019-04-24T03:02:03.022Z,16.30
2019-04-24T03:06:53.141Z,16.20
2019-04-24T03:10:45.737Z,16.90
2019-04-24T03:12:11.522Z,15.70
2019-04-24T03:13:52.160Z,17.10
2019-04-24T03:14:52.068Z,16.90
2019-04-24T03:18:57.145Z,15.80
2019-04-24T03:19:49.643Z,17.00
2019-04-24T03:22:54.372Z,16.00
2019-04-24T03:23:46.097Z,16.40
2019-04-24T03:27:56.312Z,15.20
2019-04-24T03:29:02.805Z,15.00
2019-04-24T03:32:24.674Z,18.70
2019-04-24T03:33:23.635Z,16.10
2019-04-24T03:37:00.299Z,15.50
2019-04-24T03:38:23.082Z,16.10
2019-04-24T03:45:54.115Z,15.70
2019-04-24T03:46:45.185Z,15.90
2019-04-24T03:53:00.697Z,15.40
2019-04-24T03:55:01.068Z,16.60
2019-04-24T03:56:06.415Z,16.60
2019-04-24T03:56:41.827Z,15.00
2019-04-24T03:57:54.248Z,16.00
2019-04-24T04:00:07.978Z,16.30
2019-04-24T04:02:56.694Z,16.80
2019-04-24T04:05:32.943Z,15.90
2019-04-24T04:10:00.059Z,15.90
2019-04-24T04:16:05.603Z,15.60
2019-04-24T04:18:17.752Z,16.00
2019-04-24T04:18:53.475Z,15.10
2019-04-24T04:20:01.844Z,18.50
2019-04-24T04:20:49.315Z,15.20
2019-04-24T04:23:28.166Z,15.20
2019-04-24T04:24:51.030Z,15.50
2019-04-24T04:26:00.369Z,15.20
2019-04-24T04:26:55.157Z,15.70
2019-04-24T04:31:18.924Z,15.30
2019-04-24T04:34:05.866Z,14.50
2019-04-24T04:34:54.796Z,15.70
2019-04-24T04:35:56.865Z,15.00
2019-04-24T04:36:59.063Z,15.80
2019-04-24T04:39:57.971Z,15.40
2019-04-24T04:46:10.250Z,16.30
2019-04-24T04:49:09.323Z,16.00
2019-04-24T04:52:10.125Z,14.20
2019-04-24T04:56:51.868Z,14.30
2019-04-24T04:58:01.105Z,14.00
2019-04-24T04:59:58.672Z,13.90
2019-04-24T05:04:05.227Z,15.00
2019-04-24T05:06:10.878Z,14.10
2019-04-24T05:07:50.132Z,14.00
2019-04-24T05:10:48.074Z,13.90
2019-04-24T05:12:56.222Z,14.40
2019-04-24T05:14:12.334Z,15.40
2019-04-24T05:16:00.531Z,14.10
2019-04-24T05:19:12.646Z,13.80
2019-04-24T05:19:38.842Z,14.80
2019-04-24T05:20:54.229Z,15.20
2019-04-24T05:22:56.973Z,13.40
2019-04-24T05:24:49.073Z,13.70
2019-04-24T05:28:57.256Z,13.60
2019-04-24T05:31:46.553Z,15.30
2019-04-24T05:33:03.064Z,13.90
2019-04-24T05:34:56.133Z,12.50
2019-04-24T05:35:49.282Z,12.80
2019-04-24T05:36:46.434Z,14.80
2019-04-24T05:39:04.158Z,13.90
2019-04-24T05:41:51.595Z,19.20
2019-04-24T05:49:57.555Z,14.50
2019-04-24T05:51:56.464Z,12.90
2019-04-24T05:52:58.362Z,15.00
2019-04-24T05:53:47.461Z,14.00
2019-04-24T05:54:38.221Z,15.30
2019-04-24T05:55:50.977Z,13.80
2019-04-24T05:56:57.832Z,16.10
2019-04-24T05:58:44.231Z,15.00
2019-04-24T06:01:00.574Z,14.00
2019-04-24T06:02:51.101Z,14.60
2019-04-24T06:04:52.030Z,13.50
2019-04-24T06:05:59.848Z,16.10
2019-04-24T06:08:41.560Z,14.80
2019-04-24T06:09:46.655Z,13.30
2019-04-24T06:11:54.831Z,14.40
2019-04-24T06:13:02.081Z,19.90
2019-04-24T06:14:45.293Z,19.70
2019-04-24T06:15:53.429Z,18.30
2019-04-24T06:16:54.448Z,13.30
2019-04-24T06:17:47.916Z,20.40
2019-04-24T06:19:52.592Z,16.30
2019-04-24T06:21:00.618Z,21.00
2019-04-24T06:21:54.054Z,16.30
2019-04-24T06:22:56.878Z,21.40
2019-04-24T06:27:49.237Z,12.70
2019-04-24T06:29:41.777Z,15.20
2019-04-24T06:30:58.436Z,14.50
2019-04-24T06:34:00.735Z,16.90
2019-04-24T06:35:08.119Z,21.80
2019-04-24T06:35:49.792Z,15.80
2019-04-24T06:37:06.732Z,20.00
2019-04-24T06:37:49.980Z,19.60
2019-04-24T06:39:00.842Z,18.60
2019-04-24T06:39:44.086Z,14.90
2019-04-24T06:42:51.728Z,16.30
2019-04-24T06:43:44.922Z,16.40
2019-04-24T06:45:09.979Z,16.70
2019-04-24T06:45:43.720Z,17.20
2019-04-24T06:46:50.153Z,19.40
2019-04-24T06:48:37.953Z,16.10
2019-04-24T06:49:38.270Z,15.60
2019-04-24T06:52:01.568Z,14.60
2019-04-24T06:53:53.256Z,13.60
2019-04-24T06:54:42.056Z,16.70
2019-04-24T06:58:40.813Z,15.80
2019-04-24T06:59:49.000Z,14.00
2019-04-24T07:01:46.854Z,13.20
2019-04-24T07:05:38.987Z,12.90
2019-04-24T07:06:47.539Z,19.00
2019-04-24T07:08:38.088Z,22.00
2019-04-24T07:09:41.334Z,16.20
2019-04-24T07:12:49.054Z,13.80
2019-04-24T07:14:02.211Z,16.30
2019-04-24T07:15:04.592Z,19.60
2019-04-24T07:17:56.977Z,19.00
2019-04-24T07:18:48.433Z,19.80
2019-04-24T07:21:01.484Z,15.80
2019-04-24T07:21:43.375Z,18.10
2019-04-24T07:22:39.139Z,16.60
2019-04-24T07:23:47.224Z,17.20
2019-04-24T07:26:42.356Z,17.80
2019-04-24T07:27:55.077Z,17.10
2019-04-24T07:28:49.409Z,17.30
2019-04-24T07:29:48.750Z,19.20
2019-04-24T07:30:58.233Z,15.40
2019-04-24T07:31:50.763Z,14.10
2019-04-24T07:32:54.809Z,15.70
2019-04-24T07:34:08.801Z,14.60
2019-04-24T07:36:46.300Z,14.30
2019-04-24T07:38:04.945Z,12.80
2019-04-24T07:38:40.753Z,14.60
2019-04-24T07:42:02.984Z,14.80
2019-04-24T07:42:45.850Z,12.60
2019-04-24T07:43:46.827Z,12.30
2019-04-24T07:44:49.249Z,12.70
2019-04-24T07:45:48.807Z,12.90
2019-04-24T07:46:47.879Z,12.90
2019-04-24T07:47:39.387Z,12.40
2019-04-24T07:49:02.021Z,12.10
2019-04-24T07:51:53.648Z,12.20
2019-04-24T07:53:05.311Z,13.70
2019-04-24T07:54:03.452Z,15.20
2019-04-24T07:54:52.053Z,15.90
2019-04-24T07:57:35.796Z,11.90
2019-04-24T07:58:57.978Z,16.30
2019-04-24T08:00:51.479Z,12.00
2019-04-24T08:01:57.114Z,14.50
2019-04-24T08:03:55.520Z,14.20
2019-04-24T08:04:49.957Z,16.10
2019-04-24T08:05:37.165Z,12.70
2019-04-24T08:09:00.697Z,10.90
2019-04-24T08:10:12.380Z,11.90
2019-04-24T08:12:39.617Z,17.80
2019-04-24T08:13:47.735Z,14.50
2019-04-24T08:15:43.142Z,11.20
2019-04-24T08:16:40.931Z,24.90
2019-04-24T08:17:58.900Z,14.30
2019-04-24T08:19:04.689Z,23.90
2019-04-24T08:22:00.867Z,12.40
2019-04-24T08:22:49.992Z,12.60
2019-04-24T08:25:02.956Z,13.30
2019-04-24T08:26:52.939Z,10.90
2019-04-24T08:27:48.582Z,11.00
2019-04-24T08:28:54.696Z,13.70
2019-04-24T08:31:52.129Z,12.70
2019-04-24T08:32:54.614Z,11.20
2019-04-24T08:36:57.693Z,10.80
2019-04-24T08:37:55.216Z,12.00
2019-04-24T08:39:20.492Z,12.20
2019-04-24T08:39:45.000Z,10.30
2019-04-24T08:40:53.519Z,9.70
2019-04-24T08:42:10.780Z,9.50
2019-04-24T08:42:59.921Z,9.50
2019-04-24T08:43:52.892Z,11.80
2019-04-24T08:44:57.027Z,10.70
2019-04-24T08:45:44.748Z,9.50
2019-04-24T08:46:53.034Z,12.20
2019-04-24T08:49:51.930Z,10.60
2019-04-24T08:51:13.260Z,9.80
2019-04-24T08:52:02.295Z,10.50
2019-04-24T08:52:55.548Z,10.40
2019-04-24T08:55:08.302Z,11.90
2019-04-24T08:58:01.593Z,18.60
2019-04-24T08:59:59.086Z,9.50
2019-04-24T09:00:50.051Z,9.20
2019-04-24T09:04:57.575Z,10.00
2019-04-24T09:05:57.745Z,11.90
2019-04-24T09:06:52.508Z,8.50
2019-04-24T09:08:02.004Z,10.30
2019-04-24T09:08:51.808Z,11.80
2019-04-24T09:09:46.436Z,13.30
2019-04-24T09:11:47.937Z,11.40
2019-04-24T09:13:06.804Z,12.00
2019-04-24T09:13:52.861Z,13.40
2019-04-24T09:14:39.467Z,12.20
2019-04-24T09:17:50.311Z,13.20
2019-04-24T09:18:58.812Z,9.00
2019-04-24T09:20:05.701Z,9.80
2019-04-24T09:20:50.926Z,10.80
2019-04-24T09:21:42.913Z,11.30
2019-04-24T09:23:03.604Z,11.30
2019-04-24T09:26:19.683Z,10.80
2019-04-24T09:28:56.747Z,10.40
2019-04-24T09:30:11.508Z,11.30
2019-04-24T09:30:47.274Z,9.90
2019-04-24T09:31:55.901Z,10.70
2019-04-24T09:33:47.268Z,12.00
2019-04-24T09:37:55.458Z,11.10
2019-04-24T09:40:08.936Z,11.40
2019-04-24T09:42:05.210Z,13.70
2019-04-24T09:43:11.262Z,11.60
2019-04-24T09:44:58.070Z,11.00
2019-04-24T09:45:38.728Z,11.60
2019-04-24T09:46:48.104Z,10.90
2019-04-24T09:48:53.936Z,12.60
2019-04-24T09:49:51.001Z,9.70
2019-04-24T09:50:51.116Z,8.20
2019-04-24T09:51:50.656Z,11.80
2019-04-24T09:53:02.915Z,11.60
2019-04-24T09:54:54.992Z,11.20
2019-04-24T09:55:46.340Z,12.00
2019-04-24T09:57:50.628Z,11.90
2019-04-24T09:59:00.716Z,12.00
2019-04-24T09:59:43.765Z,9.70
2019-04-24T10:01:57.533Z,12.50
2019-04-24T10:02:51.732Z,12.50
2019-04-24T10:04:00.369Z,25.60
2019-04-24T10:05:00.915Z,21.10
2019-04-24T10:08:46.655Z,12.30
2019-04-24T10:09:46.087Z,14.80
2019-04-24T10:10:42.498Z,22.60
2019-04-24T10:12:12.497Z,35.40
2019-04-24T10:13:52.112Z,34.90
2019-04-24T10:14:47.187Z,17.80
2019-04-24T10:15:55.337Z,18.50
2019-04-24T10:17:51.535Z,15.50
2019-04-24T10:19:05.627Z,16.70
2019-04-24T10:20:01.216Z,50.50
2019-04-24T10:20:55.984Z,17.30
2019-04-24T10:21:48.483Z,41.60
2019-04-24T10:23:50.245Z,41.50
2019-04-24T10:25:41.457Z,14.10
2019-04-24T10:26:48.708Z,9.50
2019-04-24T10:27:58.273Z,19.60
2019-04-24T10:29:13.802Z,23.00
2019-04-24T10:32:55.684Z,11.60
2019-04-24T10:34:00.228Z,8.70
2019-04-24T10:34:49.319Z,13.30
2019-04-24T10:35:43.581Z,39.90
2019-04-24T10:38:17.072Z,10.20
2019-04-24T10:38:46.871Z,97.50
2019-04-24T10:40:05.012Z,67.10
2019-04-24T10:40:51.846Z,58.30
2019-04-24T10:41:56.745Z,15.10
2019-04-24T10:42:46.318Z,14.00
2019-04-24T10:43:44.420Z,11.40
2019-04-24T10:45:46.024Z,19.30
2019-04-24T10:48:46.804Z,13.50
2019-04-24T10:49:50.601Z,8.70
2019-04-24T10:51:57.380Z,8.10
2019-04-24T10:52:53.363Z,11.10
2019-04-24T10:54:51.157Z,11.40
2019-04-24T10:56:43.409Z,15.30
2019-04-24T10:59:49.423Z,10.10
2019-04-24T11:01:04.412Z,8.80
2019-04-24T11:02:02.586Z,12.00
2019-04-24T11:04:00.934Z,9.40
2019-04-24T11:04:54.923Z,10.20
2019-04-24T11:07:59.202Z,28.50
2019-04-24T11:08:57.705Z,12.30
2019-04-24T11:11:59.655Z,14.20
2019-04-24T11:13:50.119Z,9.80
2019-04-24T11:14:52.185Z,11.80
2019-04-24T11:16:01.961Z,10.10
2019-04-24T11:17:11.144Z,6.10
2019-04-24T11:17:55.866Z,9.40
2019-04-24T11:19:04.656Z,10.00
2019-04-24T11:19:47.621Z,8.90
2019-04-24T11:21:01.612Z,10.70
2019-04-24T11:21:54.992Z,8.20
2019-04-24T11:22:50.921Z,10.00
2019-04-24T11:23:54.537Z,10.70
2019-04-24T11:24:53.467Z,17.10
2019-04-24T11:26:00.666Z,17.10
2019-04-24T11:26:59.351Z,9.50
2019-04-24T11:29:53.634Z,7.60
2019-04-24T11:30:49.286Z,16.90
2019-04-24T11:31:48.213Z,11.80
2019-04-24T11:32:44.634Z,12.00
2019-04-24T11:34:09.832Z,11.20
2019-04-24T11:35:43.599Z,15.50
2019-04-24T11:36:55.799Z,10.90
2019-04-24T11:39:01.591Z,16.00
2019-04-24T11:40:13.973Z,12.90
2019-04-24T11:41:54.814Z,9.30
2019-04-24T11:42:49.153Z,9.00
2019-04-24T11:44:01.844Z,9.40
2019-04-24T11:44:57.024Z,16.40
2019-04-24T11:48:57.673Z,12.10
2019-04-24T11:51:53.810Z,10.70
2019-04-24T11:53:49.022Z,9.70
2019-04-24T11:55:53.178Z,11.30
2019-04-24T11:57:00.587Z,7.60
2019-04-24T11:58:03.108Z,12.20
2019-04-24T11:59:29.696Z,10.20
2019-04-24T12:00:31.965Z,10.60
2019-04-24T12:01:55.835Z,10.70
2019-04-24T12:02:41.792Z,10.50
2019-04-24T12:03:48.305Z,10.30
2019-04-24T12:08:00.368Z,10.60
2019-04-24T12:09:47.358Z,11.70
2019-04-24T12:10:46.026Z,8.40
2019-04-24T12:11:40.072Z,10.60
2019-04-24T12:12:45.191Z,14.10
2019-04-24T12:13:52.864Z,11.90
2019-04-24T12:15:56.126Z,11.40
2019-04-24T12:21:00.932Z,12.80
2019-04-24T12:21:50.282Z,12.20
2019-04-24T12:22:53.378Z,9.30
2019-04-24T12:24:01.932Z,11.70
2019-04-24T12:24:43.891Z,10.50
2019-04-24T12:25:58.452Z,9.50
2019-04-24T12:26:40.983Z,9.60
2019-04-24T12:28:58.972Z,9.30
2019-04-24T12:29:52.448Z,12.70
2019-04-24T12:31:42.676Z,13.80
2019-04-24T12:35:38.196Z,13.20
2019-04-24T12:36:50.575Z,9.10
2019-04-24T12:37:55.043Z,9.70
2019-04-24T12:38:51.654Z,9.90
2019-04-24T12:40:08.282Z,10.80
2019-04-24T12:41:51.857Z,8.00
2019-04-24T12:42:41.836Z,11.30
2019-04-24T12:43:54.037Z,13.80
2019-04-24T12:45:05.330Z,9.90
2019-04-24T12:46:55.525Z,10.60
2019-04-24T12:47:49.890Z,9.00
2019-04-24T12:49:04.410Z,9.30
2019-04-24T12:50:52.918Z,9.90
2019-04-24T12:51:46.334Z,11.20
2019-04-24T12:52:45.884Z,10.30
2019-04-24T12:53:58.458Z,9.90
2019-04-24T12:54:46.714Z,12.40
2019-04-24T12:55:53.900Z,15.20
2019-04-24T12:58:05.794Z,9.20
2019-04-24T12:59:46.039Z,12.30
2019-04-24T13:00:55.397Z,7.40
2019-04-24T13:01:57.592Z,10.50
2019-04-24T13:02:42.349Z,9.80
2019-04-24T13:04:11.633Z,12.00
2019-04-24T13:05:50.742Z,9.60
2019-04-24T13:06:50.060Z,10.30
2019-04-24T13:08:00.137Z,8.90
2019-04-24T13:09:01.827Z,10.50
2019-04-24T13:09:54.978Z,10.70
2019-04-24T13:11:57.961Z,9.50
2019-04-24T13:12:59.933Z,13.10
2019-04-24T13:13:59.488Z,10.40
2019-04-24T13:14:55.808Z,13.00
2019-04-24T13:15:46.014Z,9.00
2019-04-24T13:17:06.532Z,12.40
2019-04-24T13:19:04.523Z,9.90
2019-04-24T13:20:25.103Z,10.00
2019-04-24T13:21:28.668Z,9.90
2019-04-24T13:22:32.954Z,8.70
2019-04-24T13:23:38.605Z,11.20
2019-04-24T13:24:36.396Z,10.00
2019-04-24T13:25:46.616Z,10.60
2019-04-24T13:27:02.904Z,10.80
2019-04-24T13:29:02.602Z,7.80
2019-04-24T13:29:57.670Z,10.30
2019-04-24T13:31:01.703Z,11.60
2019-04-24T13:31:48.804Z,9.20
2019-04-24T13:32:56.548Z,10.70
2019-04-24T13:33:43.149Z,9.10
2019-04-24T13:36:58.092Z,15.20
2019-04-24T13:38:06.331Z,11.70
2019-04-24T13:39:58.175Z,11.90
2019-04-24T13:44:05.949Z,14.80
2019-04-24T13:44:55.138Z,11.60
2019-04-24T13:46:00.071Z,11.70
2019-04-24T13:46:50.744Z,12.80
2019-04-24T13:48:05.629Z,9.80
2019-04-24T13:48:54.004Z,11.20
2019-04-24T13:49:53.879Z,10.20
2019-04-24T13:50:53.435Z,9.80
2019-04-24T13:54:00.659Z,9.60
2019-04-24T13:54:57.088Z,10.80
2019-04-24T13:55:47.055Z,14.00
2019-04-24T13:58:01.988Z,11.00
2019-04-24T13:58:51.123Z,9.50
2019-04-24T14:00:01.899Z,10.10
2019-04-24T14:00:57.979Z,9.60
2019-04-24T14:02:07.815Z,12.00
2019-04-24T14:07:04.654Z,11.30
2019-04-24T14:09:03.015Z,12.80
2019-04-24T14:10:26.005Z,9.70
2019-04-24T14:12:05.657Z,13.30
2019-04-24T14:12:28.941Z,15.30
2019-04-24T14:16:02.134Z,10.90
2019-04-24T14:17:01.055Z,9.30
2019-04-24T14:18:11.521Z,9.00
2019-04-24T14:19:03.854Z,10.30
2019-04-24T14:20:00.401Z,11.00
2019-04-24T14:20:51.009Z,11.40
2019-04-24T14:23:01.922Z,10.80
2019-04-24T14:25:00.082Z,15.10
2019-04-24T14:27:06.998Z,10.50
2019-04-24T14:28:04.384Z,14.00
2019-04-24T14:28:50.299Z,10.60
2019-04-24T14:30:01.036Z,10.60
2019-04-24T14:33:59.342Z,11.80
2019-04-24T14:34:57.790Z,11.20
2019-04-24T14:38:07.055Z,11.60
2019-04-24T14:40:01.530Z,8.40
2019-04-24T14:40:54.481Z,16.50
2019-04-24T14:41:56.038Z,10.10
2019-04-24T14:42:51.608Z,10.50
2019-04-24T14:46:03.539Z,10.40
2019-04-24T14:47:15.607Z,8.50
2019-04-24T14:47:43.385Z,13.70
2019-04-24T14:49:58.947Z,9.90
2019-04-24T14:51:54.861Z,10.70
2019-04-24T14:52:42.068Z,11.10
2019-04-24T14:54:02.655Z,10.70
2019-04-24T14:55:02.714Z,11.00
2019-04-24T14:55:55.045Z,8.10
2019-04-24T14:57:03.209Z,10.20
2019-04-24T14:57:56.100Z,10.90
2019-04-24T14:59:09.831Z,10.30
2019-04-24T15:02:06.283Z,11.00
2019-04-24T15:04:57.692Z,10.00
2019-04-24T15:06:57.884Z,9.70
2019-04-24T15:08:14.384Z,20.90
2019-04-24T15:09:04.256Z,10.70
2019-04-24T15:09:52.858Z,9.70
2019-04-24T15:10:53.288Z,9.60
2019-04-24T15:14:10.126Z,12.20
2019-04-24T15:14:59.568Z,10.00
2019-04-24T15:16:21.293Z,10.30
2019-04-24T15:16:55.879Z,9.60
2019-04-24T15:18:02.861Z,9.00
2019-04-24T15:19:09.538Z,14.20
2019-04-24T15:22:06.438Z,8.60
2019-04-24T15:24:22.204Z,11.00
2019-04-24T15:25:17.815Z,11.20
2019-04-24T15:26:02.540Z,12.00
2019-04-24T15:26:57.022Z,7.80
2019-04-24T15:28:04.272Z,13.30
2019-04-24T15:29:04.029Z,9.30
2019-04-24T15:30:50.849Z,8.50
2019-04-24T15:31:56.001Z,9.10
2019-04-24T15:34:00.868Z,9.40
2019-04-24T15:34:58.963Z,5.90
2019-04-24T15:35:54.486Z,9.90
2019-04-24T15:36:58.052Z,9.60
2019-04-24T15:39:00.820Z,8.30
2019-04-24T15:40:24.881Z,12.70
2019-04-24T15:40:59.977Z,10.30
2019-04-24T15:41:55.989Z,12.70
2019-04-24T15:43:01.958Z,10.60
2019-04-24T15:43:44.381Z,10.10
2019-04-24T15:44:58.283Z,10.40
2019-04-24T15:46:06.860Z,10.20
2019-04-24T15:47:03.540Z,10.40
2019-04-24T15:50:02.928Z,13.80
2019-04-24T15:50:56.486Z,9.20
2019-04-24T15:51:31.045Z,11.10
2019-04-24T15:52:22.836Z,7.80
2019-04-24T15:54:23.253Z,13.60
2019-04-24T15:55:22.934Z,8.30
2019-04-24T15:56:22.881Z,10.50
2019-04-24T15:57:23.479Z,10.90
2019-04-24T15:59:49.688Z,12.20
2019-04-24T16:00:58.486Z,8.40
2019-04-24T16:01:59.028Z,9.90
2019-04-24T16:03:55.276Z,10.20
2019-04-24T16:04:52.490Z,8.50
2019-04-24T16:05:23.092Z,9.00
2019-04-24T16:06:23.119Z,11.50
2019-04-24T16:07:23.155Z,10.10
2019-04-24T16:08:24.897Z,11.00
2019-04-24T16:09:23.197Z,8.50
2019-04-24T16:10:23.214Z,10.80
2019-04-24T16:11:23.240Z,10.70
2019-04-24T16:12:23.278Z,10.50
2019-04-24T16:13:30.762Z,12.80
2019-04-24T16:14:49.860Z,11.50
2019-04-24T16:15:58.659Z,10.40
2019-04-24T16:18:01.484Z,11.10
2019-04-24T16:19:54.713Z,12.30
2019-04-24T16:21:04.260Z,8.00
2019-04-24T16:21:51.480Z,9.00
2019-04-24T16:23:12.609Z,8.60
2019-04-24T16:25:01.548Z,9.60
2019-04-24T16:25:52.294Z,9.70
2019-04-24T16:26:58.179Z,10.70
2019-04-24T16:28:01.771Z,13.10
2019-04-24T16:29:06.955Z,8.20
2019-04-24T16:30:02.808Z,9.50
2019-04-24T16:33:11.415Z,7.30
2019-04-24T16:33:56.658Z,10.50
2019-04-24T16:35:02.410Z,10.00
2019-04-24T16:36:01.533Z,7.40
2019-04-24T16:37:06.514Z,12.40
2019-04-24T16:38:00.627Z,15.50
2019-04-24T16:39:02.783Z,7.90
2019-04-24T16:40:16.729Z,8.00
2019-04-24T16:43:09.530Z,12.30
2019-04-24T16:44:07.586Z,10.60
2019-04-24T16:44:56.943Z,11.70
2019-04-24T16:46:11.982Z,10.00
2019-04-24T16:48:47.186Z,8.50
2019-04-24T16:50:14.523Z,12.30
2019-04-24T16:51:11.718Z,10.20
2019-04-24T16:52:11.688Z,9.30
2019-04-24T16:53:57.094Z,7.20
2019-04-24T16:54:54.377Z,7.80
2019-04-24T16:55:59.562Z,10.60
2019-04-24T16:56:58.506Z,9.80
2019-04-24T16:58:07.551Z,11.40
2019-04-24T16:58:51.575Z,14.20
2019-04-24T16:59:52.649Z,8.60
2019-04-24T17:01:16.897Z,10.90
2019-04-24T17:01:59.616Z,11.00
2019-04-24T17:03:04.711Z,7.40
2019-04-24T17:05:03.193Z,10.40
2019-04-24T17:06:01.716Z,10.20
2019-04-24T17:06:52.803Z,11.50
2019-04-24T17:08:15.181Z,6.50
2019-04-24T17:09:57.560Z,7.80
2019-04-24T17:11:00.748Z,9.10
2019-04-24T17:12:00.163Z,9.80
2019-04-24T17:13:05.396Z,13.80
2019-04-24T17:13:59.910Z,7.60
2019-04-24T17:16:04.347Z,12.00
2019-04-24T17:17:13.388Z,7.60
2019-04-24T17:17:51.795Z,9.20
2019-04-24T17:21:56.802Z,9.20
2019-04-24T17:22:58.715Z,10.70
2019-04-24T17:24:05.891Z,7.90
2019-04-24T17:26:13.257Z,9.70
2019-04-24T17:26:58.789Z,9.40
2019-04-24T17:28:04.867Z,9.60
2019-04-24T17:28:56.039Z,8.10
2019-04-24T17:30:14.203Z,11.40
2019-04-24T17:31:53.563Z,9.60
2019-04-24T17:32:53.113Z,8.80
2019-04-24T17:34:02.630Z,6.90
2019-04-24T17:35:01.274Z,7.40
2019-04-24T17:35:58.739Z,8.60
2019-04-24T17:36:30.726Z,6.60
2019-04-24T17:37:25.161Z,9.10
2019-04-24T17:38:25.164Z,9.20
2019-04-24T17:39:25.428Z,8.80
2019-04-24T17:40:25.217Z,8.70
2019-04-24T17:41:31.528Z,8.00
2019-04-24T17:42:36.433Z,6.90
2019-04-24T17:44:02.910Z,7.80
2019-04-24T17:44:57.818Z,8.50
2019-04-24T17:45:53.927Z,8.10
2019-04-24T17:47:03.933Z,6.90
2019-04-24T17:48:01.498Z,6.50
2019-04-24T17:49:07.558Z,10.70
2019-04-24T17:50:56.695Z,8.20
2019-04-24T17:51:52.075Z,7.40
2019-04-24T17:52:58.439Z,9.20
2019-04-24T17:53:54.837Z,8.00
2019-04-24T17:54:53.594Z,8.90
2019-04-24T17:56:58.152Z,8.60
2019-04-24T17:58:27.749Z,6.70
2019-04-24T17:59:25.574Z,7.60
2019-04-24T18:00:25.929Z,7.50
2019-04-24T18:01:25.615Z,8.20
2019-04-24T18:02:25.671Z,8.90
2019-04-24T18:03:25.642Z,6.80
2019-04-24T18:04:25.671Z,5.60
2019-04-24T18:05:25.704Z,8.20
2019-04-24T18:06:25.715Z,7.80
2019-04-24T18:07:25.702Z,6.00
2019-04-24T18:08:25.739Z,9.60
2019-04-24T18:09:25.755Z,10.10
2019-04-24T18:10:25.776Z,9.40
2019-04-24T18:11:25.780Z,11.20
2019-04-24T18:12:25.797Z,5.50
2019-04-24T18:13:26.797Z,5.70
2019-04-24T18:14:25.853Z,6.80
2019-04-24T18:15:25.865Z,6.90
2019-04-24T18:16:25.868Z,9.50
2019-04-24T18:17:25.892Z,8.90
2019-04-24T18:18:25.906Z,11.20
2019-04-24T18:19:25.933Z,7.40
2019-04-24T18:20:25.951Z,9.40
2019-04-24T18:21:26.033Z,8.20
2019-04-24T18:22:36.444Z,11.70
2019-04-24T18:23:26.019Z,7.80
2019-04-24T18:24:26.033Z,7.00
2019-04-24T18:25:27.358Z,8.00
2019-04-24T18:26:26.076Z,7.50
2019-04-24T18:27:26.142Z,8.60
2019-04-24T18:28:26.120Z,8.70
2019-04-24T18:29:26.140Z,7.20
2019-04-24T18:30:26.224Z,7.00
2019-04-24T18:31:26.331Z,8.00
2019-04-24T18:32:26.652Z,9.40
2019-04-24T18:33:26.206Z,8.00
2019-04-24T18:34:26.204Z,8.40
2019-04-24T18:35:26.243Z,8.60
2019-04-24T18:36:26.239Z,10.20
2019-04-24T18:37:26.772Z,9.10
2019-04-24T18:38:26.287Z,9.10
2019-04-24T18:40:26.321Z,9.50
2019-04-24T18:41:26.355Z,12.50
2019-04-24T18:43:26.375Z,7.40
2019-04-24T18:44:26.419Z,6.30
2019-04-24T18:45:26.399Z,8.60
2019-04-24T18:46:26.436Z,8.90
2019-04-24T18:47:26.457Z,6.60
2019-04-24T18:48:26.469Z,8.70
2019-04-24T18:49:26.508Z,7.20
2019-04-24T18:50:26.507Z,69.10
2019-04-24T18:51:27.492Z,100.40
2019-04-24T18:52:26.525Z,86.80
2019-04-24T18:53:26.553Z,23.50
2019-04-24T18:54:26.577Z,18.10
2019-04-24T18:55:26.590Z,13.70
2019-04-24T18:56:26.613Z,28.80
2019-04-24T18:57:26.826Z,19.20
2019-04-24T18:58:26.667Z,28.60
2019-04-24T18:59:26.660Z,23.90
2019-04-24T19:00:26.664Z,19.30
2019-04-24T19:01:26.702Z,11.90
2019-04-24T19:02:26.931Z,17.20
2019-04-24T19:03:26.728Z,13.10
2019-04-24T19:04:26.843Z,15.20
2019-04-24T19:05:26.755Z,15.70
2019-04-24T19:06:31.469Z,13.40
2019-04-24T19:07:26.815Z,10.80
2019-04-24T19:08:26.818Z,11.00
2019-04-24T19:09:27.202Z,11.50
2019-04-24T19:10:26.871Z,7.80
2019-04-24T19:11:26.847Z,11.60
2019-04-24T19:12:26.884Z,10.70
2019-04-24T19:13:26.887Z,13.70
2019-04-24T19:14:26.910Z,9.80
2019-04-24T19:15:26.927Z,9.60
2019-04-24T19:16:26.940Z,9.10
2019-04-24T19:17:27.009Z,10.00
2019-04-24T19:18:26.978Z,13.00
2019-04-24T19:19:27.005Z,9.50
2019-04-24T19:20:26.996Z,6.30
2019-04-24T19:21:27.035Z,6.80
2019-04-24T19:22:27.042Z,6.40
2019-04-24T19:23:27.062Z,7.70
2019-04-24T19:24:27.064Z,4.30
2019-04-24T19:25:27.090Z,5.10
2019-04-24T19:26:27.088Z,4.50
2019-04-24T19:27:27.106Z,4.70